Terminal Aerodrome Forecast
Issued by NWS Twin Cities, MN

Home | Current Version | Previous Version | Text Only | Print | Product List | Glossary On
Versions: 1 2 3 4 5 6 7 8 9 10 11 12 13 14 15 16 17 18 19 20 21 22 23 24
196
FTUS43 KMPX 232030 AAA
TAFMSP
TAF AMD
KMSP 232030Z 2321/2424 18007KT P6SM SCT100 BKN250
     FM241500 21008KT P6SM BKN100
     FM241800 29012KT P6SM -RA OVC070
     FM242100 31016G24KT P6SM BKN050 BKN100=

USA.gov is the U.S. government's official web portal to all federal, state and local government web resources and services.